sensor_id;sensor_type;location;lat;lon;timestamp;pressure;altitude;pressure_sealevel;temperature;humidity
51439;BME280;38816;51.142;-0.974;2023-12-28T00:00:09;98936.44;;;9.78;100.00
51439;BME280;38816;51.142;-0.974;2023-12-28T00:02:35;98938.13;;;9.89;100.00
51439;BME280;38816;51.142;-0.974;2023-12-28T00:05:00;98941.56;;;9.81;100.00
51439;BME280;38816;51.142;-0.974;2023-12-28T00:07:26;98938.13;;;9.89;100.00
51439;BME280;38816;51.142;-0.974;2023-12-28T00:09:51;98946.69;;;9.79;100.00
51439;BME280;38816;51.142;-0.974;2023-12-28T00:12:18;98944.13;;;9.81;100.00
51439;BME280;38816;51.142;-0.974;2023-12-28T00:14:44;98930.44;;;9.86;100.00
51439;BME280;38816;51.142;-0.974;2023-12-28T00:17:09;98935.56;;;9.88;100.00
51439;BME280;38816;51.142;-0.974;2023-12-28T00:19:35;98927.84;;;9.96;100.00
51439;BME280;38816;51.142;-0.974;2023-12-28T00:22:00;98958.63;;;9.94;100.00
51439;BME280;38816;51.142;-0.974;2023-12-28T00:24:26;98953.50;;;9.97;100.00
51439;BME280;38816;51.142;-0.974;2023-12-28T00:26:51;98952.66;;;9.94;100.00
51439;BME280;38816;51.142;-0.974;2023-12-28T00:29:17;98949.25;;;9.96;100.00
51439;BME280;38816;51.142;-0.974;2023-12-28T00:31:42;98971.47;;;9.94;100.00
51439;BME280;38816;51.142;-0.974;2023-12-28T00:34:08;98967.19;;;9.98;100.00
51439;BME280;38816;51.142;-0.974;2023-12-28T00:36:33;98962.09;;;9.87;100.00
51439;BME280;38816;51.142;-0.974;2023-12-28T00:38:59;98986.88;;;9.94;100.00
51439;BME280;38816;51.142;-0.974;2023-12-28T00:41:24;98975.75;;;9.94;100.00
51439;BME280;38816;51.142;-0.974;2023-12-28T00:43:50;98982.63;;;9.82;100.00
51439;BME280;38816;51.142;-0.974;2023-12-28T00:46:15;98991.19;;;9.78;100.00
51439;BME280;38816;51.142;-0.974;2023-12-28T00:48:41;98968.94;;;9.79;100.00
51439;BME280;38816;51.142;-0.974;2023-12-28T00:51:07;98982.63;;;9.82;100.00
51439;BME280;38816;51.142;-0.974;2023-12-28T00:53:32;99004.00;;;9.84;100.00
51439;BME280;38816;51.142;-0.974;2023-12-28T00:55:58;98992.03;;;9.88;100.00
51439;BME280;38816;51.142;-0.974;2023-12-28T00:58:23;98994.59;;;9.93;100.00
51439;BME280;38816;51.142;-0.974;2023-12-28T01:00:49;98975.78;;;9.87;100.00
51439;BME280;38816;51.142;-0.974;2023-12-28T01:03:18;98974.91;;;9.88;100.00
51439;BME280;38816;51.142;-0.974;2023-12-28T01:05:44;98970.63;;;9.84;100.00
51439;BME280;38816;51.142;-0.974;2023-12-28T01:08:12;98959.53;;;9.82;100.00
51439;BME280;38816;51.142;-0.974;2023-12-28T01:10:38;98967.22;;;9.79;100.00
51439;BME280;38816;51.142;-0.974;2023-12-28T01:13:03;98953.53;;;9.86;100.00
51439;BME280;38816;51.142;-0.974;2023-12-28T01:15:29;98955.22;;;9.97;100.00
51439;BME280;38816;51.142;-0.974;2023-12-28T01:17:54;98960.34;;;9.98;100.00
51439;BME280;38816;51.142;-0.974;2023-12-28T01:20:20;98951.81;;;9.88;100.00
51439;BME280;38816;51.142;-0.974;2023-12-28T01:22:45;98959.50;;;9.85;100.00
51439;BME280;38816;51.142;-0.974;2023-12-28T01:25:11;98956.94;;;9.85;100.00
51439;BME280;38816;51.142;-0.974;2023-12-28T01:27:36;98965.50;;;9.84;100.00
51439;BME280;38816;51.142;-0.974;2023-12-28T01:30:02;98954.41;;;9.79;100.00
51439;BME280;38816;51.142;-0.974;2023-12-28T01:32:27;98957.81;;;9.68;100.00
51439;BME280;38816;51.142;-0.974;2023-12-28T01:34:53;98972.38;;;9.64;100.00
51439;BME280;38816;51.142;-0.974;2023-12-28T01:37:18;98966.38;;;9.54;100.00
51439;BME280;38816;51.142;-0.974;2023-12-28T01:39:44;98975.78;;;9.54;100.00
51439;BME280;38816;51.142;-0.974;2023-12-28T01:42:09;98987.75;;;9.47;100.00
51439;BME280;38816;51.142;-0.974;2023-12-28T01:44:35;98986.91;;;9.39;100.00
51439;BME280;38816;51.142;-0.974;2023-12-28T01:47:03;99010.81;;;9.29;100.00
51439;BME280;38816;51.142;-0.974;2023-12-28T01:49:30;99011.66;;;9.20;100.00
51439;BME280;38816;51.142;-0.974;2023-12-28T01:51:56;99020.22;;;9.28;100.00
51439;BME280;38816;51.142;-0.974;2023-12-28T01:54:22;99005.66;;;9.17;100.00
51439;BME280;38816;51.142;-0.974;2023-12-28T01:56:48;99007.34;;;9.13;100.00
51439;BME280;38816;51.142;-0.974;2023-12-28T01:59:14;98986.00;;;9.08;100.00
51439;BME280;38816;51.142;-0.974;2023-12-28T02:01:40;99009.91;;;9.07;100.00
51439;BME280;38816;51.142;-0.974;2023-12-28T02:04:07;98992.81;;;9.00;100.00
51439;BME280;38816;51.142;-0.974;2023-12-28T02:06:32;99005.59;;;8.94;100.00
51439;BME280;38816;51.142;-0.974;2023-12-28T02:08:58;99010.72;;;8.87;100.00
51439;BME280;38816;51.142;-0.974;2023-12-28T02:11:23;99015.81;;;8.80;100.00
51439;BME280;38816;51.142;-0.974;2023-12-28T02:13:49;99011.56;;;8.83;100.00
51439;BME280;38816;51.142;-0.974;2023-12-28T02:18:51;99009.81;;;8.78;100.00
51439;BME280;38816;51.142;-0.974;2023-12-28T02:21:20;99009.81;;;8.82;100.00
51439;BME280;38816;51.142;-0.974;2023-12-28T02:23:49;99015.00;;;8.93;100.00
51439;BME280;38816;51.142;-0.974;2023-12-28T02:26:18;99013.28;;;8.91;100.00
51439;BME280;38816;51.142;-0.974;2023-12-28T02:28:45;99038.94;;;8.98;100.00
51439;BME280;38816;51.142;-0.974;2023-12-28T02:31:17;99019.31;;;9.02;100.00
51439;BME280;38816;51.142;-0.974;2023-12-28T02:33:55;99027.84;;;9.02;100.00
51439;BME280;38816;51.142;-0.974;2023-12-28T02:36:24;99023.56;;;8.94;100.00
51439;BME280;38816;51.142;-0.974;2023-12-28T02:38:52;99027.78;;;8.81;100.00
51439;BME280;38816;51.142;-0.974;2023-12-28T02:41:19;99030.31;;;8.76;100.00
51439;BME280;38816;51.142;-0.974;2023-12-28T02:43:48;99030.25;;;8.64;100.00
51439;BME280;38816;51.142;-0.974;2023-12-28T02:46:14;99033.72;;;8.71;100.00
51439;BME280;38816;51.142;-0.974;2023-12-28T02:48:39;99028.53;;;8.63;100.00
51439;BME280;38816;51.142;-0.974;2023-12-28T02:51:05;99021.75;;;8.71;100.00
51439;BME280;38816;51.142;-0.974;2023-12-28T02:53:31;99026.06;;;8.81;100.00
51439;BME280;38816;51.142;-0.974;2023-12-28T02:55:56;99041.44;;;8.80;100.00
51439;BME280;38816;51.142;-0.974;2023-12-28T02:58:22;99016.69;;;8.86;100.00
51439;BME280;38816;51.142;-0.974;2023-12-28T03:00:47;99027.78;;;8.84;100.00
51439;BME280;38816;51.142;-0.974;2023-12-28T03:03:14;99035.47;;;8.79;100.00
51439;BME280;38816;51.142;-0.974;2023-12-28T03:05:39;99028.59;;;8.75;100.00
51439;BME280;38816;51.142;-0.974;2023-12-28T03:08:06;99034.59;;;8.76;100.00
51439;BME280;38816;51.142;-0.974;2023-12-28T03:10:31;99037.19;;;8.88;100.00
51439;BME280;38816;51.142;-0.974;2023-12-28T03:12:57;99029.53;;;8.97;100.00
51439;BME280;38816;51.142;-0.974;2023-12-28T03:15:23;99037.19;;;8.91;100.00
51439;BME280;38816;51.142;-0.974;2023-12-28T03:17:48;99037.16;;;8.80;100.00
51439;BME280;38816;51.142;-0.974;2023-12-28T03:20:14;99016.66;;;8.80;100.00
51439;BME280;38816;51.142;-0.974;2023-12-28T03:22:40;99018.38;;;8.78;100.00
51439;BME280;38816;51.142;-0.974;2023-12-28T03:25:06;99026.94;;;8.86;100.00
51439;BME280;38816;51.142;-0.974;2023-12-28T03:27:32;99035.50;;;8.92;100.00
51439;BME280;38816;51.142;-0.974;2023-12-28T03:29:57;99037.25;;;9.02;100.00
51439;BME280;38816;51.142;-0.974;2023-12-28T03:32:23;99037.25;;;9.05;100.00
51439;BME280;38816;51.142;-0.974;2023-12-28T03:34:49;99050.94;;;9.07;100.00
51439;BME280;38816;51.142;-0.974;2023-12-28T03:37:14;99038.97;;;9.09;100.00
51439;BME280;38816;51.142;-0.974;2023-12-28T03:39:40;99036.41;;;9.06;100.00
51439;BME280;38816;51.142;-0.974;2023-12-28T03:42:06;99023.63;;;9.24;100.00
51439;BME280;38816;51.142;-0.974;2023-12-28T03:44:31;99027.91;;;9.30;100.00
51439;BME280;38816;51.142;-0.974;2023-12-28T03:46:57;99013.38;;;9.27;100.00
51439;BME280;38816;51.142;-0.974;2023-12-28T03:49:22;99025.34;;;9.34;100.00
51439;BME280;38816;51.142;-0.974;2023-12-28T03:51:49;99027.94;;;9.44;100.00
51439;BME280;38816;51.142;-0.974;2023-12-28T03:54:16;99039.91;;;9.42;100.00
51439;BME280;38816;51.142;-0.974;2023-12-28T03:56:42;99046.78;;;9.50;100.00
51439;BME280;38816;51.142;-0.974;2023-12-28T03:59:08;99038.19;;;9.50;100.00
51439;BME280;38816;51.142;-0.974;2023-12-28T04:01:34;99032.22;;;9.48;100.00
51439;BME280;38816;51.142;-0.974;2023-12-28T04:03:59;99056.16;;;9.50;100.00
51439;BME280;38816;51.142;-0.974;2023-12-28T04:06:25;99045.06;;;9.63;100.00
51439;BME280;38816;51.142;-0.974;2023-12-28T04:08:50;99039.06;;;9.58;100.00
51439;BME280;38816;51.142;-0.974;2023-12-28T04:11:16;99045.06;;;9.55;100.00
51439;BME280;38816;51.142;-0.974;2023-12-28T04:13:42;99042.50;;;9.52;100.00
51439;BME280;38816;51.142;-0.974;2023-12-28T04:16:07;99044.22;;;9.56;100.00
51439;BME280;38816;51.142;-0.974;2023-12-28T04:18:34;99042.50;;;9.57;100.00
51439;BME280;38816;51.142;-0.974;2023-12-28T04:21:00;99045.88;;;9.50;100.00
51439;BME280;38816;51.142;-0.974;2023-12-28T04:23:25;99039.91;;;9.48;100.00
51439;BME280;38816;51.142;-0.974;2023-12-28T04:25:51;99063.00;;;9.54;100.00
51439;BME280;38816;51.142;-0.974;2023-12-28T04:28:16;99054.47;;;9.58;100.00
51439;BME280;38816;51.142;-0.974;2023-12-28T04:30:42;99068.13;;;9.54;100.00
51439;BME280;38816;51.142;-0.974;2023-12-28T04:33:07;99068.16;;;9.51;100.00
51439;BME280;38816;51.142;-0.974;2023-12-28T04:35:33;99053.59;;;9.44;100.00
51439;BME280;38816;51.142;-0.974;2023-12-28T04:37:58;99053.59;;;9.44;100.00
51439;BME280;38816;51.142;-0.974;2023-12-28T04:40:23;99070.69;;;9.37;100.00
51439;BME280;38816;51.142;-0.974;2023-12-28T04:42:49;99063.84;;;9.39;100.00
51439;BME280;38816;51.142;-0.974;2023-12-28T04:45:14;99063.84;;;9.33;100.00
51439;BME280;38816;51.142;-0.974;2023-12-28T04:47:40;99061.25;;;9.25;100.00
51439;BME280;38816;51.142;-0.974;2023-12-28T04:50:06;99038.19;;;9.30;100.00
51439;BME280;38816;51.142;-0.974;2023-12-28T04:52:32;99082.59;;;9.23;100.00
51439;BME280;38816;51.142;-0.974;2023-12-28T04:54:58;99085.16;;;9.23;100.00
51439;BME280;38816;51.142;-0.974;2023-12-28T04:57:24;99066.38;;;9.36;100.00
51439;BME280;38816;51.142;-0.974;2023-12-28T04:59:51;99086.94;;;9.53;100.00
51439;BME280;38816;51.142;-0.974;2023-12-28T05:02:17;99082.72;;;9.75;100.00
51439;BME280;38816;51.142;-0.974;2023-12-28T05:04:43;99087.84;;;9.75;100.00
51439;BME280;38816;51.142;-0.974;2023-12-28T05:07:08;99088.72;;;9.74;100.00
51439;BME280;38816;51.142;-0.974;2023-12-28T05:09:33;99091.28;;;9.74;100.00
51439;BME280;38816;51.142;-0.974;2023-12-28T05:11:59;99097.22;;;9.63;100.00
51439;BME280;38816;51.142;-0.974;2023-12-28T05:14:25;99111.69;;;9.34;100.00
51439;BME280;38816;51.142;-0.974;2023-12-28T05:16:50;99097.97;;;9.18;100.00
51439;BME280;38816;51.142;-0.974;2023-12-28T05:19:16;99088.56;;;9.11;100.00
51439;BME280;38816;51.142;-0.974;2023-12-28T05:21:41;99076.50;;;8.88;100.00
51439;BME280;38816;51.142;-0.974;2023-12-28T05:24:07;99070.47;;;8.74;100.00
51439;BME280;38816;51.142;-0.974;2023-12-28T05:26:32;99100.25;;;8.60;100.00
51439;BME280;38816;51.142;-0.974;2023-12-28T05:28:58;99109.59;;;8.47;100.00
51439;BME280;38816;51.142;-0.974;2023-12-28T05:31:23;99106.03;;;8.34;100.00
51439;BME280;38816;51.142;-0.974;2023-12-28T05:33:49;99122.13;;;8.15;100.00
51439;BME280;38816;51.142;-0.974;2023-12-28T05:36:14;99082.81;;;8.08;100.00
51439;BME280;38816;51.142;-0.974;2023-12-28T05:38:40;99093.75;;;7.89;100.00
51439;BME280;38816;51.142;-0.974;2023-12-28T05:41:06;99091.88;;;7.71;100.00
51439;BME280;38816;51.142;-0.974;2023-12-28T05:43:31;99108.59;;;7.40;100.00
51439;BME280;38816;51.142;-0.974;2023-12-28T05:45:57;99116.03;;;7.20;100.00
51439;BME280;38816;51.142;-0.974;2023-12-28T05:48:22;99116.03;;;7.17;100.00
51439;BME280;38816;51.142;-0.974;2023-12-28T05:50:48;99104.03;;;7.13;100.00
51439;BME280;38816;51.142;-0.974;2023-12-28T05:53:14;99095.56;;;7.17;100.00
51439;BME280;38816;51.142;-0.974;2023-12-28T05:55:40;99109.19;;;7.16;100.00
51439;BME280;38816;51.142;-0.974;2023-12-28T05:58:06;99098.13;;;7.17;100.00
51439;BME280;38816;51.142;-0.974;2023-12-28T06:00:31;99109.22;;;7.19;100.00
51439;BME280;38816;51.142;-0.974;2023-12-28T06:02:57;99108.47;;;7.28;100.00
51439;BME280;38816;51.142;-0.974;2023-12-28T06:05:23;99094.97;;;7.41;100.00
51439;BME280;38816;51.142;-0.974;2023-12-28T06:07:48;99104.44;;;7.51;100.00
51439;BME280;38816;51.142;-0.974;2023-12-28T06:10:14;99102.97;;;7.70;100.00
51439;BME280;38816;51.142;-0.974;2023-12-28T06:12:39;99105.53;;;7.73;100.00
51439;BME280;38816;51.142;-0.974;2023-12-28T06:15:05;99112.44;;;7.80;100.00
51439;BME280;38816;51.142;-0.974;2023-12-28T06:17:31;99111.56;;;7.83;100.00
51439;BME280;38816;51.142;-0.974;2023-12-28T06:19:56;99104.78;;;7.86;100.00
51439;BME280;38816;51.142;-0.974;2023-12-28T06:22:22;99106.50;;;7.87;100.00
51439;BME280;38816;51.142;-0.974;2023-12-28T06:24:50;99107.44;;;7.94;100.00
51439;BME280;38816;51.142;-0.974;2023-12-28T06:27:16;99121.13;;;8.01;100.00
51439;BME280;38816;51.142;-0.974;2023-12-28T06:29:41;99116.88;;;8.03;100.00
51439;BME280;38816;51.142;-0.974;2023-12-28T06:32:07;99114.44;;;8.17;100.00
51439;BME280;38816;51.142;-0.974;2023-12-28T06:34:32;99113.56;;;8.13;100.00
51439;BME280;38816;51.142;-0.974;2023-12-28T06:36:58;99111.88;;;8.17;100.00
51439;BME280;38816;51.142;-0.974;2023-12-28T06:39:23;99120.44;;;8.23;100.00
51439;BME280;38816;51.142;-0.974;2023-12-28T06:41:48;99121.41;;;8.34;100.00
51439;BME280;38816;51.142;-0.974;2023-12-28T06:44:14;99118.94;;;8.44;100.00
51439;BME280;38816;51.142;-0.974;2023-12-28T06:46:40;99120.69;;;8.51;100.00
51439;BME280;38816;51.142;-0.974;2023-12-28T06:49:06;99135.22;;;8.52;100.00
51439;BME280;38816;51.142;-0.974;2023-12-28T06:51:32;99135.19;;;8.49;100.00
51439;BME280;38816;51.142;-0.974;2023-12-28T06:53:58;99135.16;;;8.46;100.00
51439;BME280;38816;51.142;-0.974;2023-12-28T06:56:24;99142.81;;;8.38;100.00
51439;BME280;38816;51.142;-0.974;2023-12-28T06:58:50;99149.66;;;8.42;100.00
51439;BME280;38816;51.142;-0.974;2023-12-28T07:01:18;99157.22;;;8.33;100.00
51439;BME280;38816;51.142;-0.974;2023-12-28T07:03:44;99142.69;;;8.27;100.00
51439;BME280;38816;51.142;-0.974;2023-12-28T07:06:09;99158.00;;;8.21;100.00
51439;BME280;38816;51.142;-0.974;2023-12-28T07:08:35;99158.78;;;8.14;100.00
51439;BME280;38816;51.142;-0.974;2023-12-28T07:11:01;99157.97;;;8.15;100.00
51439;BME280;38816;51.142;-0.974;2023-12-28T07:13:27;99164.75;;;8.13;100.00
51439;BME280;38816;51.142;-0.974;2023-12-28T07:15:53;99161.28;;;8.08;100.00
51439;BME280;38816;51.142;-0.974;2023-12-28T07:18:19;99159.53;;;8.02;100.00
51439;BME280;38816;51.142;-0.974;2023-12-28T07:20:44;99162.16;;;8.07;100.00
51439;BME280;38816;51.142;-0.974;2023-12-28T07:23:10;99167.31;;;8.13;100.00
51439;BME280;38816;51.142;-0.974;2023-12-28T07:25:35;99153.69;;;8.19;100.00
51439;BME280;38816;51.142;-0.974;2023-12-28T07:28:01;99179.34;;;8.22;100.00
51439;BME280;38816;51.142;-0.974;2023-12-28T07:30:27;99167.44;;;8.27;100.00
51439;BME280;38816;51.142;-0.974;2023-12-28T07:32:53;99175.09;;;8.28;100.00
51439;BME280;38816;51.142;-0.974;2023-12-28T07:35:18;99183.72;;;8.33;100.00
51439;BME280;38816;51.142;-0.974;2023-12-28T07:37:44;99184.53;;;8.31;100.00
51439;BME280;38816;51.142;-0.974;2023-12-28T07:40:11;99173.47;;;8.33;100.00
51439;BME280;38816;51.142;-0.974;2023-12-28T07:42:37;99170.06;;;8.34;100.00
51439;BME280;38816;51.142;-0.974;2023-12-28T07:45:03;99170.03;;;8.31;100.00
51439;BME280;38816;51.142;-0.974;2023-12-28T07:47:29;99167.44;;;8.28;100.00
51439;BME280;38816;51.142;-0.974;2023-12-28T07:49:55;99169.97;;;8.27;100.00
51439;BME280;38816;51.142;-0.974;2023-12-28T07:52:20;99159.69;;;8.22;100.00
51439;BME280;38816;51.142;-0.974;2023-12-28T07:54:46;99156.28;;;8.20;100.00
51439;BME280;38816;51.142;-0.974;2023-12-28T07:57:11;99148.66;;;8.25;100.00
51439;BME280;38816;51.142;-0.974;2023-12-28T07:59:37;99155.47;;;8.26;100.00
51439;BME280;38816;51.142;-0.974;2023-12-28T08:02:02;99158.03;;;8.24;100.00
51439;BME280;38816;51.142;-0.974;2023-12-28T08:04:28;99167.34;;;8.19;100.00
51439;BME280;38816;51.142;-0.974;2023-12-28T08:06:53;99160.56;;;8.21;100.00
51439;BME280;38816;51.142;-0.974;2023-12-28T08:09:19;99162.31;;;8.27;100.00
51439;BME280;38816;51.142;-0.974;2023-12-28T08:11:44;99160.72;;;8.40;100.00
51439;BME280;38816;51.142;-0.974;2023-12-28T08:14:10;99172.78;;;8.53;100.00
51439;BME280;38816;51.142;-0.974;2023-12-28T08:16:36;99172.81;;;8.57;100.00
51439;BME280;38816;51.142;-0.974;2023-12-28T08:19:02;99162.63;;;8.65;100.00
51439;BME280;38816;51.142;-0.974;2023-12-28T08:21:27;99158.41;;;8.70;100.00
51439;BME280;38816;51.142;-0.974;2023-12-28T08:23:53;99150.75;;;8.78;100.00
51439;BME280;38816;51.142;-0.974;2023-12-28T08:26:18;99149.06;;;8.78;100.00
51439;BME280;38816;51.142;-0.974;2023-12-28T08:28:44;99157.63;;;8.86;100.00
51439;BME280;38816;51.142;-0.974;2023-12-28T08:31:10;99151.69;;;8.92;100.00
51439;BME280;38816;51.142;-0.974;2023-12-28T08:33:36;99161.09;;;8.95;100.00
51439;BME280;38816;51.142;-0.974;2023-12-28T08:36:04;99156.84;;;9.00;100.00
51439;BME280;38816;51.142;-0.974;2023-12-28T08:38:30;99152.63;;;9.09;100.00
51439;BME280;38816;51.142;-0.974;2023-12-28T08:40:56;99168.00;;;9.09;100.00
51439;BME280;38816;51.142;-0.974;2023-12-28T08:43:22;99178.31;;;9.17;100.00
51439;BME280;38816;51.142;-0.974;2023-12-28T08:45:47;99183.44;;;9.20;100.00
51439;BME280;38816;51.142;-0.974;2023-12-28T08:48:13;99191.13;;;9.17;100.00
51439;BME280;38816;51.142;-0.974;2023-12-28T08:50:38;99187.69;;;9.18;100.00
51439;BME280;38816;51.142;-0.974;2023-12-28T08:53:04;99190.25;;;9.12;100.00
51439;BME280;38816;51.142;-0.974;2023-12-28T08:55:30;99203.94;;;9.16;100.00
51439;BME280;38816;51.142;-0.974;2023-12-28T08:57:55;99192.81;;;9.13;100.00
51439;BME280;38816;51.142;-0.974;2023-12-28T09:00:21;99190.28;;;9.23;100.00
51439;BME280;38816;51.142;-0.974;2023-12-28T09:02:46;99187.75;;;9.27;100.00
51439;BME280;38816;51.142;-0.974;2023-12-28T09:05:12;99196.31;;;9.23;100.00
51439;BME280;38816;51.142;-0.974;2023-12-28T09:07:37;99192.91;;;9.36;100.00
51439;BME280;38816;51.142;-0.974;2023-12-28T09:10:12;99197.22;;;9.39;100.00
51439;BME280;38816;51.142;-0.974;2023-12-28T09:12:39;99210.00;;;9.31;100.00
51439;BME280;38816;51.142;-0.974;2023-12-28T09:15:06;99216.84;;;9.34;100.00
51439;BME280;38816;51.142;-0.974;2023-12-28T09:17:35;99216.06;;;9.41;100.00
51439;BME280;38816;51.142;-0.974;2023-12-28T09:20:01;99213.47;;;9.41;100.00
51439;BME280;38816;51.142;-0.974;2023-12-28T09:22:31;99208.31;;;9.39;100.00
51439;BME280;38816;51.142;-0.974;2023-12-28T09:24:57;99222.88;;;9.42;100.00
51439;BME280;38816;51.142;-0.974;2023-12-28T09:27:22;99210.09;;;9.53;100.00
51439;BME280;38816;51.142;-0.974;2023-12-28T09:29:47;99217.81;;;9.59;100.00
51439;BME280;38816;51.142;-0.974;2023-12-28T09:32:13;99209.28;;;9.64;100.00
51439;BME280;38816;51.142;-0.974;2023-12-28T09:34:40;99207.63;;;9.73;100.00
51439;BME280;38816;51.142;-0.974;2023-12-28T09:37:05;99213.59;;;9.70;100.00
51439;BME280;38816;51.142;-0.974;2023-12-28T09:39:31;99210.22;;;9.82;100.00
51439;BME280;38816;51.142;-0.974;2023-12-28T09:42:06;99208.53;;;9.98;100.00
51439;BME280;38816;51.142;-0.974;2023-12-28T09:44:36;99213.63;;;9.95;100.00
51439;BME280;38816;51.142;-0.974;2023-12-28T09:47:07;99211.94;;;9.94;100.00
51439;BME280;38816;51.142;-0.974;2023-12-28T09:49:32;99219.69;;;10.04;100.00
51439;BME280;38816;51.142;-0.974;2023-12-28T09:51:59;99218.81;;;10.07;100.00
51439;BME280;38816;51.142;-0.974;2023-12-28T09:54:25;99219.66;;;10.07;100.00
51439;BME280;38816;51.142;-0.974;2023-12-28T09:56:51;99219.69;;;10.09;100.00
51439;BME280;38816;51.142;-0.974;2023-12-28T09:59:19;99212.81;;;10.08;100.00
51439;BME280;38816;51.142;-0.974;2023-12-28T10:01:46;99217.97;;;10.19;100.00
51439;BME280;38816;51.142;-0.974;2023-12-28T10:04:14;99217.13;;;10.18;100.00
51439;BME280;38816;51.142;-0.974;2023-12-28T10:06:41;99217.13;;;10.21;100.00
51439;BME280;38816;51.142;-0.974;2023-12-28T10:09:06;99218.88;;;10.25;100.00
51439;BME280;38816;51.142;-0.974;2023-12-28T10:11:33;99221.41;;;10.14;100.00
51439;BME280;38816;51.142;-0.974;2023-12-28T10:13:59;99217.09;;;10.06;100.00
51439;BME280;38816;51.142;-0.974;2023-12-28T10:16:24;99211.09;;;10.08;100.00
51439;BME280;38816;51.142;-0.974;2023-12-28T10:18:50;99224.84;;;10.13;100.00
51439;BME280;38816;51.142;-0.974;2023-12-28T10:21:15;99224.88;;;10.29;100.00
51439;BME280;38816;51.142;-0.974;2023-12-28T10:23:41;99208.59;;;10.25;100.00
51439;BME280;38816;51.142;-0.974;2023-12-28T10:26:06;99217.16;;;10.24;100.00
51439;BME280;38816;51.142;-0.974;2023-12-28T10:28:34;99205.19;;;10.29;100.00
51439;BME280;38816;51.142;-0.974;2023-12-28T10:31:00;99210.28;;;10.20;100.00
51439;BME280;38816;51.142;-0.974;2023-12-28T10:33:26;99208.56;;;10.14;100.00
51439;BME280;38816;51.142;-0.974;2023-12-28T10:35:52;99204.25;;;10.07;100.00
51439;BME280;38816;51.142;-0.974;2023-12-28T10:38:19;99206.84;;;10.09;100.00
51439;BME280;38816;51.142;-0.974;2023-12-28T10:40:46;99206.84;;;10.10;100.00
51439;BME280;38816;51.142;-0.974;2023-12-28T10:43:17;99199.97;;;10.12;100.00
51439;BME280;38816;51.142;-0.974;2023-12-28T10:45:51;99199.13;;;10.06;100.00
51439;BME280;38816;51.142;-0.974;2023-12-28T10:48:24;99211.97;;;10.06;100.00
51439;BME280;38816;51.142;-0.974;2023-12-28T10:50:57;99205.13;;;10.14;100.00
51439;BME280;38816;51.142;-0.974;2023-12-28T10:53:38;99196.63;;;10.27;100.00
51439;BME280;38816;51.142;-0.974;2023-12-28T10:56:23;99197.47;;;10.25;100.00
51439;BME280;38816;51.142;-0.974;2023-12-28T11:01:42;99196.56;;;10.21;100.00
51439;BME280;38816;51.142;-0.974;2023-12-28T11:04:37;99192.28;;;10.20;100.00
51439;BME280;38816;51.142;-0.974;2023-12-28T11:07:05;99186.28;;;10.12;100.00
51439;BME280;38816;51.142;-0.974;2023-12-28T11:09:32;99172.59;;;10.16;100.00
51439;BME280;38816;51.142;-0.974;2023-12-28T11:12:00;99170.03;;;10.05;100.00
51439;BME280;38816;51.142;-0.974;2023-12-28T11:14:27;99158.03;;;10.03;100.00
51439;BME280;38816;51.142;-0.974;2023-12-28T11:16:53;99170.84;;;9.89;100.00
51439;BME280;38816;51.142;-0.974;2023-12-28T11:19:20;99164.84;;;9.85;100.00
51439;BME280;38816;51.142;-0.974;2023-12-28T11:21:48;99169.13;;;9.83;100.00
51439;BME280;38816;51.142;-0.974;2023-12-28T11:24:16;99159.75;;;9.87;100.00
51439;BME280;38816;51.142;-0.974;2023-12-28T11:26:42;99158.88;;;9.89;100.00
51439;BME280;38816;51.142;-0.974;2023-12-28T11:29:07;99169.16;;;9.99;100.00
51439;BME280;38816;51.142;-0.974;2023-12-28T11:31:34;99145.22;;;10.09;100.00
51439;BME280;38816;51.142;-0.974;2023-12-28T11:34:01;99154.66;;;10.28;100.00
51439;BME280;38816;51.142;-0.974;2023-12-28T11:36:40;99134.13;;;10.36;100.00
51439;BME280;38816;51.142;-0.974;2023-12-28T11:39:09;99140.97;;;10.37;100.00
51439;BME280;38816;51.142;-0.974;2023-12-28T11:41:38;99151.22;;;10.40;100.00
51439;BME280;38816;51.142;-0.974;2023-12-28T11:44:04;99139.25;;;10.39;100.00
51439;BME280;38816;51.142;-0.974;2023-12-28T11:46:35;99121.28;;;10.31;100.00
51439;BME280;38816;51.142;-0.974;2023-12-28T11:49:07;99119.56;;;10.27;100.00
51439;BME280;38816;51.142;-0.974;2023-12-28T11:51:36;99131.53;;;10.25;100.00
51439;BME280;38816;51.142;-0.974;2023-12-28T11:54:06;99126.41;;;10.25;100.00
51439;BME280;38816;51.142;-0.974;2023-12-28T11:56:31;99131.53;;;10.25;100.00
51439;BME280;38816;51.142;-0.974;2023-12-28T11:58:58;99132.41;;;10.32;100.00
51439;BME280;38816;51.142;-0.974;2023-12-28T12:01:24;99124.69;;;10.33;100.00
51439;BME280;38816;51.142;-0.974;2023-12-28T12:03:50;99110.13;;;10.49;100.00
51439;BME280;38816;51.142;-0.974;2023-12-28T12:06:16;99143.47;;;10.78;100.00
51439;BME280;38816;51.142;-0.974;2023-12-28T12:08:45;99124.59;;;10.88;100.00
51439;BME280;38816;51.142;-0.974;2023-12-28T12:11:11;99134.88;;;10.88;100.00
51439;BME280;38816;51.142;-0.974;2023-12-28T12:13:37;99146.06;;;10.81;100.00
51439;BME280;38816;51.142;-0.974;2023-12-28T12:16:03;99128.06;;;10.81;100.00
51439;BME280;38816;51.142;-0.974;2023-12-28T12:18:31;99128.03;;;10.83;100.00
51439;BME280;38816;51.142;-0.974;2023-12-28T12:20:57;99129.75;;;10.85;100.00
51439;BME280;38816;51.142;-0.974;2023-12-28T12:23:23;99130.59;;;10.90;100.00
51439;BME280;38816;51.142;-0.974;2023-12-28T12:25:49;99115.13;;;10.98;100.00
51439;BME280;38816;51.142;-0.974;2023-12-28T12:28:15;99110.00;;;11.00;100.00
51439;BME280;38816;51.142;-0.974;2023-12-28T12:30:40;99115.97;;;11.02;100.00
51439;BME280;38816;51.142;-0.974;2023-12-28T12:33:13;99112.56;;;10.94;100.00
51439;BME280;38816;51.142;-0.974;2023-12-28T12:35:40;99114.28;;;11.01;100.00
51439;BME280;38816;51.142;-0.974;2023-12-28T12:38:06;99115.09;;;11.09;100.00
51439;BME280;38816;51.142;-0.974;2023-12-28T12:40:31;99123.69;;;11.12;100.00
51439;BME280;38816;51.142;-0.974;2023-12-28T12:42:58;99115.09;;;11.06;100.00
51439;BME280;38816;51.142;-0.974;2023-12-28T12:45:25;99099.69;;;10.98;100.00
51439;BME280;38816;51.142;-0.974;2023-12-28T12:47:51;99104.00;;;10.99;100.00